Time;durP1;ratioP1;P1;durP2;ratioP2;P2;SDS_P1;SDS_P2;PMS_P1;PMS_P2;Temp;Humidity;BMP_temperature;BMP_pressure;BME280_temperature;BME280_humidity;BME280_pressure;Samples;Min_cycle;Max_cycle;Signal;HPM_P1;HPM_P2
2022/10/28 00:01:20;;;;;;;2.20;1.40;;;17.20;90.60;;;;;;4928479;29;20039;-75
2022/10/28 00:03:50;;;;;;;;;;;17.20;90.60;;;;;;4927700;29;20039;-76
2022/10/28 00:06:21;;;;;;;2.20;1.20;;;17.20;90.60;;;;;;4928449;29;19919;-76
2022/10/28 00:08:47;;;;;;;2.03;1.30;;;17.20;90.60;;;;;;4927390;29;20028;-75
2022/10/28 00:11:16;;;;;;;2.45;1.30;;;17.20;90.60;;;;;;4926745;29;20390;-75
2022/10/28 00:13:43;;;;;;;2.85;1.40;;;17.20;90.60;;;;;;4912411;29;20103;-76
2022/10/28 00:16:18;;;;;;;2.65;1.50;;;17.20;90.60;;;;;;4930892;29;20114;-76
2022/10/28 00:18:44;;;;;;;4.00;1.50;;;17.20;90.60;;;;;;4932497;29;20063;-77
2022/10/28 00:21:13;;;;;;;3.55;1.60;;;17.20;90.60;;;;;;4930208;29;20028;-76
2022/10/28 00:23:39;;;;;;;2.95;1.45;;;17.20;90.60;;;;;;4932172;29;20456;-77
2022/10/28 00:26:08;;;;;;;4.28;1.60;;;17.10;90.60;;;;;;4931967;29;20031;-77
2022/10/28 00:28:34;;;;;;;2.70;1.50;;;17.20;90.70;;;;;;4915397;29;20082;-76
2022/10/28 00:31:07;;;;;;;2.25;1.45;;;17.20;90.60;;;;;;4931982;29;20094;-76
2022/10/28 00:33:33;;;;;;;1.83;1.35;;;17.20;90.60;;;;;;4929463;29;20036;-77
2022/10/28 00:36:18;;;;;;;2.38;1.30;;;17.20;90.50;;;;;;4930632;29;20040;-76
2022/10/28 00:38:46;;;;;;;2.70;1.40;;;17.20;90.50;;;;;;4930272;29;20826;-77
2022/10/28 00:41:14;;;;;;;2.17;1.30;;;17.30;90.50;;;;;;4919684;29;20039;-77
2022/10/28 00:43:46;;;;;;;2.83;1.33;;;17.20;90.40;;;;;;4930978;29;20484;-76
2022/10/28 00:46:25;;;;;;;;;;;17.20;90.40;;;;;;4931231;29;20031;-76
2022/10/28 00:49:05;;;;;;;2.67;1.33;;;17.20;90.40;;;;;;4930208;29;20436;-76
2022/10/28 00:51:33;;;;;;;2.93;1.50;;;17.30;90.50;;;;;;4931413;29;20036;-77
2022/10/28 00:53:59;;;;;;;4.63;1.55;;;17.20;90.70;;;;;;4931229;29;20050;-76
2022/10/28 00:56:29;;;;;;;2.45;1.40;;;17.20;90.60;;;;;;4931751;29;20379;-77
2022/10/28 00:58:58;;;;;;;2.53;1.40;;;17.20;90.60;;;;;;4931549;29;20043;-75
2022/10/28 01:01:24;;;;;;;3.17;1.60;;;17.20;90.60;;;;;;4931024;29;20209;-76
2022/10/28 01:03:50;;;;;;;2.65;1.50;;;17.20;90.60;;;;;;4931671;29;20564;-76
2022/10/28 01:06:15;;;;;;;2.92;1.45;;;17.20;90.60;;;;;;4931071;29;20086;-76
2022/10/28 01:08:41;;;;;;;4.60;1.65;;;17.20;90.60;;;;;;4931609;29;20031;-78
2022/10/28 01:11:11;;;;;;;2.38;1.40;;;17.20;90.60;;;;;;4930927;29;20036;-76
2022/10/28 01:14:10;;;;;;;3.25;1.45;;;17.10;90.60;;;;;;4929924;29;20032;-77
2022/10/28 01:17:05;;;;;;;2.93;1.50;;;17.20;90.70;;;;;;4931165;29;20036;-76
2022/10/28 01:19:50;;;;;;;2.45;1.50;;;17.20;90.60;;;;;;4931240;29;20043;-76
2022/10/28 01:22:39;;;;;;;2.30;1.25;;;17.20;90.70;;;;;;4930841;29;20055;-76
2022/10/28 01:25:22;;;;;;;2.72;1.40;;;17.20;90.60;;;;;;4930747;29;20020;-77
2022/10/28 01:28:17;;;;;;;3.00;1.70;;;17.10;90.60;;;;;;4914161;29;20028;-76
2022/10/28 01:31:17;;;;;;;3.08;1.58;;;17.20;90.70;;;;;;4917987;29;20061;-76
2022/10/28 01:34:08;;;;;;;3.15;1.67;;;17.10;90.60;;;;;;4913484;29;20054;-76
2022/10/28 01:36:34;;;;;;;3.35;1.55;;;17.10;90.60;;;;;;4907332;29;20040;-77
2022/10/28 01:39:11;;;;;;;2.10;1.30;;;17.20;90.60;;;;;;4913695;29;20462;-77
2022/10/28 01:42:06;;;;;;;2.63;1.40;;;17.20;90.50;;;;;;4930979;29;20121;-76
2022/10/28 01:44:54;;;;;;;2.80;1.60;;;17.20;90.50;;;;;;4921934;29;20376;-76
2022/10/28 01:47:30;;;;;;;2.63;1.40;;;17.20;90.40;;;;;;4930917;29;20060;-76
2022/10/28 01:50:19;;;;;;;2.83;1.50;;;17.20;90.40;;;;;;4930377;29;20032;-76
2022/10/28 01:52:46;;;;;;;2.97;1.45;;;17.20;90.40;;;;;;4913594;29;20032;-76
2022/10/28 01:55:35;;;;;;;3.15;1.60;;;17.20;90.50;;;;;;4930232;29;20032;-77
2022/10/28 01:58:02;;;;;;;2.20;1.33;;;17.20;90.50;;;;;;4913526;29;20027;-77
2022/10/28 02:00:30;;;;;;;2.55;1.40;;;17.20;90.50;;;;;;4929916;29;20032;-76
2022/10/28 02:02:56;;;;;;;2.35;1.40;;;17.10;90.50;;;;;;4929297;29;20079;-77
2022/10/28 02:05:34;;;;;;;3.15;1.42;;;17.20;90.60;;;;;;4929111;29;20031;-77
2022/10/28 02:08:16;;;;;;;2.55;1.42;;;17.20;90.60;;;;;;4913359;29;20063;-76
2022/10/28 02:11:03;;;;;;;3.13;1.50;;;17.20;90.60;;;;;;4930065;29;20039;-76
2022/10/28 02:13:52;;;;;;;3.30;1.50;;;17.20;90.60;;;;;;4930187;29;20031;-77
2022/10/28 02:16:36;;;;;;;3.47;1.50;;;17.10;90.60;;;;;;4930219;29;20028;-76
2022/10/28 02:19:29;;;;;;;3.40;1.63;;;17.20;90.70;;;;;;4912960;29;20023;-76
2022/10/28 02:22:05;;;;;;;2.65;1.50;;;17.20;90.70;;;;;;4912630;29;20051;-76
2022/10/28 02:24:43;;;;;;;3.05;1.60;;;17.10;90.60;;;;;;4913216;29;20585;-75
2022/10/28 02:27:25;;;;;;;3.13;1.48;;;17.20;90.70;;;;;;4930090;29;20096;-77
2022/10/28 02:30:14;;;;;;;2.63;1.45;;;17.10;90.60;;;;;;4929687;29;20035;-76
2022/10/28 02:32:45;;;;;;;2.95;1.60;;;17.10;90.70;;;;;;4913084;29;20038;-77
2022/10/28 02:35:19;;;;;;;2.60;1.45;;;17.10;90.70;;;;;;4930147;29;20035;-77
2022/10/28 02:37:47;;;;;;;2.38;1.20;;;17.10;90.60;;;;;;4929224;29;20042;-77
2022/10/28 02:40:19;;;;;;;2.65;1.50;;;17.10;90.60;;;;;;4925922;29;20580;-76
2022/10/28 02:42:49;;;;;;;3.03;1.50;;;17.10;90.60;;;;;;4930256;29;20030;-77
2022/10/28 02:45:18;;;;;;;3.10;1.60;;;17.20;90.60;;;;;;4925152;29;20028;-76
2022/10/28 02:48:18;;;;;;;3.20;1.70;;;17.20;90.50;;;;;;4929267;29;20039;-77
2022/10/28 02:50:52;;;;;;;2.28;1.30;;;17.20;90.50;;;;;;4921130;29;20122;-76
2022/10/28 02:53:29;;;;;;;2.45;1.38;;;17.20;90.40;;;;;;4928491;29;20034;-76
2022/10/28 02:55:58;;;;;;;3.08;1.60;;;17.20;90.40;;;;;;4928074;29;20042;-76
2022/10/28 02:58:24;;;;;;;3.40;1.50;;;17.20;90.50;;;;;;4928212;29;20040;-77
2022/10/28 03:00:50;;;;;;;2.75;1.50;;;17.20;90.50;;;;;;4928809;29;20116;-77
2022/10/28 03:03:16;;;;;;;3.20;1.65;;;17.20;90.50;;;;;;4927968;29;20035;-76
2022/10/28 03:05:41;;;;;;;2.90;1.50;;;17.10;90.80;;;;;;4929180;29;20040;-77
2022/10/28 03:08:07;;;;;;;2.33;1.40;;;17.10;90.60;;;;;;4929093;29;20032;-76
2022/10/28 03:10:33;;;;;;;3.33;1.42;;;17.20;90.60;;;;;;4929044;29;20091;-76
2022/10/28 03:12:58;;;;;;;3.20;1.50;;;17.20;90.60;;;;;;4927661;29;20059;-77
2022/10/28 03:15:24;;;;;;;3.20;1.40;;;17.10;90.60;;;;;;4928019;29;20058;-76
2022/10/28 03:17:49;;;;;;;2.65;1.40;;;17.10;90.60;;;;;;4929046;29;20111;-76
2022/10/28 03:20:15;;;;;;;3.35;1.40;;;17.10;90.60;;;;;;4928868;29;20043;-77
2022/10/28 03:22:43;;;;;;;2.97;1.67;;;17.10;90.60;;;;;;4927588;29;20062;-77
2022/10/28 03:25:09;;;;;;;3.20;1.70;;;17.10;90.70;;;;;;4927960;29;20122;-76
2022/10/28 03:27:38;;;;;;;3.53;1.60;;;17.10;90.70;;;;;;4927479;29;20123;-76
2022/10/28 03:30:04;;;;;;;2.92;1.40;;;17.10;90.70;;;;;;4927463;29;20090;-76
2022/10/28 03:32:29;;;;;;;2.95;1.60;;;17.10;90.70;;;;;;4927903;29;20039;-75
2022/10/28 03:34:55;;;;;;;2.97;1.58;;;17.10;90.70;;;;;;4927568;29;20537;-76
2022/10/28 03:37:20;;;;;;;2.67;1.50;;;17.10;90.70;;;;;;4928784;29;20028;-77
2022/10/28 03:39:46;;;;;;;3.03;1.63;;;17.10;90.70;;;;;;4926855;29;20032;-76
2022/10/28 03:42:11;;;;;;;2.88;1.60;;;17.10;90.70;;;;;;4928575;29;20034;-76
2022/10/28 03:44:37;;;;;;;3.15;1.70;;;17.10;90.70;;;;;;4928404;29;20042;-77
2022/10/28 03:47:02;;;;;;;2.08;1.40;;;17.20;90.60;;;;;;4928571;29;20039;-76
2022/10/28 03:49:28;;;;;;;2.90;1.65;;;17.20;90.60;;;;;;4929794;29;20110;-77
2022/10/28 03:51:53;;;;;;;3.63;1.67;;;17.20;90.50;;;;;;4928522;29;20099;-77
2022/10/28 03:54:19;;;;;;;2.80;1.55;;;17.20;90.50;;;;;;4927547;29;20454;-76
2022/10/28 03:56:44;;;;;;;3.13;1.45;;;17.20;90.50;;;;;;4927246;29;20032;-76
2022/10/28 03:59:10;;;;;;;2.58;1.65;;;17.20;90.50;;;;;;4928625;29;20055;-76
2022/10/28 04:01:36;;;;;;;3.08;1.60;;;17.20;90.50;;;;;;4926639;29;20032;-76
2022/10/28 04:04:02;;;;;;;4.07;1.73;;;17.20;90.50;;;;;;4926912;29;20032;-76
2022/10/28 04:06:28;;;;;;;2.45;1.30;;;17.20;90.60;;;;;;4927249;29;20048;-76
2022/10/28 04:08:54;;;;;;;3.08;1.60;;;17.20;90.60;;;;;;4927103;29;20079;-76
2022/10/28 04:11:20;;;;;;;2.75;1.60;;;17.10;90.60;;;;;;4927933;29;20031;-76
2022/10/28 04:13:45;;;;;;;2.85;1.73;;;17.10;90.60;;;;;;4926731;29;20060;-75
2022/10/28 04:16:10;;;;;;;3.35;1.67;;;17.10;90.60;;;;;;4928587;29;20554;-75
2022/10/28 04:18:36;;;;;;;3.03;1.70;;;17.10;90.70;;;;;;4929269;29;20028;-77
2022/10/28 04:21:02;;;;;;;3.17;1.60;;;17.10;90.70;;;;;;4927854;29;20035;-78
2022/10/28 04:23:28;;;;;;;3.80;1.92;;;17.10;90.70;;;;;;4929367;29;20042;-77
2022/10/28 04:25:54;;;;;;;2.63;1.60;;;17.10;90.70;;;;;;4912293;29;20127;-78
2022/10/28 04:28:22;;;;;;;3.50;1.80;;;17.10;90.70;;;;;;4928089;29;20028;-78
2022/10/28 04:30:48;;;;;;;2.30;1.42;;;17.10;90.70;;;;;;4928490;29;20083;-77
2022/10/28 04:33:15;;;;;;;3.30;1.73;;;17.10;90.70;;;;;;4928731;29;20035;-76
2022/10/28 04:35:42;;;;;;;3.40;1.63;;;17.10;90.70;;;;;;4912052;29;20041;-77
2022/10/28 04:38:09;;;;;;;3.42;1.73;;;17.10;90.70;;;;;;4928729;29;20036;-76
2022/10/28 04:40:34;;;;;;;3.33;1.73;;;17.10;90.70;;;;;;4923097;29;20039;-77
2022/10/28 04:43:00;;;;;;;3.35;1.60;;;17.10;90.70;;;;;;4929527;29;20030;-80
2022/10/28 04:45:25;;;;;;;3.88;1.67;;;17.10;90.70;;;;;;4912730;29;20028;-75
2022/10/28 04:47:59;;;;;;;2.95;1.60;;;17.10;90.70;;;;;;4904477;29;20024;-75
2022/10/28 04:50:25;;;;;;;2.95;1.50;;;17.10;90.60;;;;;;4910354;29;20032;-75
2022/10/28 04:52:51;;;;;;;2.75;1.40;;;17.10;90.60;;;;;;4926433;29;20028;-75
2022/10/28 04:55:16;;;;;;;2.33;1.45;;;17.10;90.50;;;;;;4928821;29;20102;-76
2022/10/28 04:57:42;;;;;;;4.00;1.88;;;17.20;90.50;;;;;;4924357;29;20032;-78
2022/10/28 05:00:08;;;;;;;3.33;1.60;;;17.20;90.50;;;;;;4918863;29;20032;-77
2022/10/28 05:02:34;;;;;;;3.53;1.73;;;17.20;90.50;;;;;;4925001;29;20071;-78
2022/10/28 05:05:02;;;;;;;2.72;1.40;;;17.20;90.50;;;;;;4920781;29;20035;-77
2022/10/28 05:07:28;;;;;;;3.33;1.70;;;17.10;90.50;;;;;;4921140;29;20513;-76
2022/10/28 05:09:54;;;;;;;2.67;1.65;;;17.10;90.60;;;;;;4929007;29;20047;-75
2022/10/28 05:12:20;;;;;;;2.80;1.50;;;17.20;90.60;;;;;;4928475;29;20039;-77
2022/10/28 05:14:45;;;;;;;2.55;1.50;;;17.10;90.60;;;;;;4926630;29;20534;-76
2022/10/28 05:17:11;;;;;;;3.20;1.88;;;17.10;90.70;;;;;;4911632;29;20331;-77
2022/10/28 05:19:36;;;;;;;3.00;1.60;;;17.10;90.70;;;;;;4927390;29;20452;-76
2022/10/28 05:22:02;;;;;;;4.40;1.60;;;17.10;90.70;;;;;;4927396;29;20114;-76
2022/10/28 05:24:28;;;;;;;4.22;2.10;;;17.10;90.70;;;;;;4926181;29;20086;-78
2022/10/28 05:26:53;;;;;;;2.95;1.55;;;17.10;90.70;;;;;;4930613;29;20059;-76
2022/10/28 05:29:19;;;;;;;3.40;1.70;;;17.10;90.70;;;;;;4926400;29;20028;-77
2022/10/28 05:31:45;;;;;;;3.28;1.67;;;17.10;90.70;;;;;;4928419;29;20015;-76
2022/10/28 05:34:11;;;;;;;3.63;1.60;;;17.00;90.70;;;;;;4930699;29;20036;-77
2022/10/28 05:36:37;;;;;;;2.83;1.60;;;17.10;90.70;;;;;;4930005;29;20083;-77
2022/10/28 05:39:03;;;;;;;2.50;1.50;;;17.10;90.70;;;;;;4928613;29;20059;-76
2022/10/28 05:41:28;;;;;;;3.13;1.70;;;17.00;90.70;;;;;;4931400;29;20113;-75
2022/10/28 05:43:54;;;;;;;2.85;1.45;;;17.10;90.80;;;;;;4930953;29;20673;-76
2022/10/28 05:46:21;;;;;;;2.78;1.50;;;17.10;90.70;;;;;;4929200;29;20032;-76
2022/10/28 05:48:46;;;;;;;3.22;1.60;;;17.10;90.70;;;;;;4930986;29;20111;-77
2022/10/28 05:51:12;;;;;;;4.25;1.80;;;17.10;90.70;;;;;;4930835;29;20111;-76
2022/10/28 05:53:40;;;;;;;3.78;1.73;;;17.10;90.70;;;;;;4930039;29;20389;-76
2022/10/28 05:56:06;;;;;;;3.20;1.70;;;17.10;90.60;;;;;;4912281;29;20119;-78
2022/10/28 05:58:32;;;;;;;4.15;1.90;;;17.10;90.50;;;;;;4928691;29;20028;-77
2022/10/28 06:00:57;;;;;;;4.88;1.90;;;17.10;90.50;;;;;;4927672;29;20034;-76
2022/10/28 06:03:23;;;;;;;3.45;1.80;;;17.20;90.50;;;;;;4930252;29;20035;-76
2022/10/28 06:05:48;;;;;;;4.47;1.92;;;17.20;90.50;;;;;;4913299;29;20114;-76
2022/10/28 06:08:14;;;;;;;4.32;1.60;;;17.10;90.50;;;;;;4930212;29;20231;-76
2022/10/28 06:10:40;;;;;;;4.40;1.92;;;17.10;90.50;;;;;;4913093;29;20163;-77
2022/10/28 06:13:07;;;;;;;3.55;1.92;;;17.10;90.50;;;;;;4930044;29;20027;-78
2022/10/28 06:15:33;;;;;;;4.07;2.15;;;17.10;90.60;;;;;;4929116;29;20126;-78
2022/10/28 06:17:58;;;;;;;4.20;2.05;;;17.20;90.60;;;;;;4930551;29;20067;-77
2022/10/28 06:20:24;;;;;;;4.95;1.80;;;17.10;90.60;;;;;;4931081;29;20036;-77
2022/10/28 06:22:51;;;;;;;5.85;2.25;;;17.10;90.60;;;;;;4930525;29;20172;-77
2022/10/28 06:25:18;;;;;;;4.85;2.00;;;17.10;90.60;;;;;;4929167;29;20058;-77
2022/10/28 06:27:44;;;;;;;4.82;2.53;;;17.10;90.60;;;;;;4929691;29;20051;-76
2022/10/28 06:30:10;;;;;;;3.30;1.80;;;17.00;90.60;;;;;;4929453;29;20028;-77
2022/10/28 06:32:35;;;;;;;4.53;2.20;;;17.10;90.60;;;;;;4912863;29;20031;-77
2022/10/28 06:35:01;;;;;;;4.13;2.05;;;17.10;90.60;;;;;;4929926;29;20430;-76
2022/10/28 06:37:26;;;;;;;4.32;1.90;;;17.00;90.60;;;;;;4929752;29;20039;-77
2022/10/28 06:39:52;;;;;;;4.57;2.42;;;17.10;90.60;;;;;;4929312;29;20197;-77
2022/10/28 06:42:18;;;;;;;5.05;2.47;;;17.10;90.60;;;;;;4928494;29;20133;-76
2022/10/28 06:44:44;;;;;;;4.38;2.10;;;17.10;90.60;;;;;;4929707;29;20498;-76
2022/10/28 06:47:09;;;;;;;5.00;2.00;;;17.10;90.50;;;;;;4929788;29;20108;-77
2022/10/28 06:49:35;;;;;;;4.25;2.00;;;17.10;90.50;;;;;;4927025;29;20081;-77
2022/10/28 06:52:00;;;;;;;4.97;2.28;;;17.20;90.40;;;;;;4928410;29;20847;-77
2022/10/28 06:54:26;;;;;;;4.13;1.90;;;17.20;90.40;;;;;;4928624;29;20047;-77
2022/10/28 06:56:51;;;;;;;4.38;2.20;;;17.20;90.50;;;;;;4928791;29;20023;-77
2022/10/28 06:59:17;;;;;;;4.90;2.10;;;17.30;90.20;;;;;;4910989;29;20050;-77
2022/10/28 07:01:43;;;;;;;5.05;2.30;;;17.30;90.00;;;;;;4911429;29;20023;-76
2022/10/28 07:04:11;;;;;;;6.72;2.53;;;17.30;90.00;;;;;;4927692;29;20263;-77
2022/10/28 07:06:37;;;;;;;4.25;2.10;;;17.30;90.00;;;;;;4928888;29;20054;-77
2022/10/28 07:09:03;;;;;;;4.63;2.22;;;17.30;90.00;;;;;;4928934;29;20028;-77
2022/10/28 07:11:28;;;;;;;4.40;2.00;;;17.30;90.00;;;;;;4928599;29;20039;-76
2022/10/28 07:13:54;;;;;;;4.15;2.10;;;17.30;90.00;;;;;;4927001;29;20034;-77
2022/10/28 07:16:19;;;;;;;4.53;2.00;;;17.30;90.00;;;;;;4927381;29;20033;-77
2022/10/28 07:18:45;;;;;;;4.90;2.22;;;17.30;90.10;;;;;;4928452;29;20035;-77
2022/10/28 07:21:11;;;;;;;4.05;2.10;;;17.30;90.00;;;;;;4926912;29;20393;-76
2022/10/28 07:23:36;;;;;;;4.05;2.00;;;17.30;90.30;;;;;;4910978;29;20031;-77
2022/10/28 07:26:02;;;;;;;5.35;2.25;;;17.30;90.00;;;;;;4927072;29;20024;-77
2022/10/28 07:28:28;;;;;;;5.07;1.90;;;17.30;90.00;;;;;;4928522;29;20446;-76
2022/10/28 07:30:53;;;;;;;4.38;2.05;;;17.30;90.10;;;;;;4911096;29;20043;-76
2022/10/28 07:33:19;;;;;;;5.45;2.00;;;17.30;90.10;;;;;;4928739;29;20035;-76
2022/10/28 07:35:45;;;;;;;5.93;2.58;;;17.30;90.30;;;;;;4928437;29;20107;-78
2022/10/28 07:38:10;;;;;;;4.18;2.20;;;17.40;90.00;;;;;;4911381;29;20440;-77
2022/10/28 07:40:36;;;;;;;4.47;2.20;;;17.40;89.90;;;;;;4927654;29;20035;-76
2022/10/28 07:43:02;;;;;;;5.28;2.15;;;17.40;89.70;;;;;;4928062;29;20028;-77
2022/10/28 07:45:27;;;;;;;4.50;1.98;;;17.50;89.60;;;;;;4926787;29;20034;-76
2022/10/28 07:47:53;;;;;;;6.07;2.40;;;17.50;89.50;;;;;;4926877;29;20030;-77
2022/10/28 07:50:18;;;;;;;5.43;2.25;;;17.60;89.20;;;;;;4928073;29;20094;-77
2022/10/28 07:52:44;;;;;;;3.70;2.05;;;17.60;89.00;;;;;;4928075;29;20071;-77
2022/10/28 07:55:11;;;;;;;4.75;2.17;;;17.70;88.70;;;;;;4910576;29;20478;-77
2022/10/28 07:57:36;;;;;;;4.00;2.10;;;17.70;88.40;;;;;;4927955;29;20058;-77
2022/10/28 08:00:05;;;;;;;6.10;2.40;;;17.80;88.30;;;;;;4927541;29;20819;-78
2022/10/28 08:02:30;;;;;;;4.45;2.20;;;17.80;88.10;;;;;;4928305;29;20449;-76
2022/10/28 08:04:56;;;;;;;4.90;2.22;;;17.90;87.90;;;;;;4926444;29;20123;-76
2022/10/28 08:07:21;;;;;;;4.10;2.20;;;18.00;87.70;;;;;;4927144;29;20027;-76
2022/10/28 08:09:47;;;;;;;5.18;2.00;;;18.00;87.50;;;;;;4927698;29;20098;-76
2022/10/28 08:12:14;;;;;;;6.05;2.25;;;18.00;87.40;;;;;;4910854;29;20038;-76
2022/10/28 08:14:40;;;;;;;4.78;2.17;;;18.00;87.30;;;;;;4910942;29;20059;-76
2022/10/28 08:17:06;;;;;;;4.43;2.17;;;18.00;87.30;;;;;;4928047;29;20146;-76
2022/10/28 08:19:31;;;;;;;4.32;2.20;;;18.00;87.20;;;;;;4927314;29;20502;-77
2022/10/28 08:21:57;;;;;;;4.03;2.05;;;18.00;87.20;;;;;;4927742;29;20479;-76
2022/10/28 08:24:23;;;;;;;5.57;2.20;;;18.00;87.20;;;;;;4927631;29;20361;-76
2022/10/28 08:26:48;;;;;;;4.90;2.30;;;18.10;87.30;;;;;;4910809;29;20032;-77
2022/10/28 08:29:14;;;;;;;5.78;2.25;;;18.10;87.20;;;;;;4926546;29;20032;-78
2022/10/28 08:31:40;;;;;;;4.47;2.00;;;18.10;87.20;;;;;;4910516;29;20039;-77
2022/10/28 08:34:06;;;;;;;4.30;2.20;;;18.10;87.10;;;;;;4927784;29;20032;-77
2022/10/28 08:36:32;;;;;;;6.72;2.22;;;18.10;87.00;;;;;;4914200;29;20036;-77
2022/10/28 08:39:00;;;;;;;5.15;2.47;;;18.20;86.90;;;;;;4931655;29;20096;-77
2022/10/28 08:41:39;;;;;;;4.18;2.15;;;18.20;86.70;;;;;;4928968;29;20496;-77
2022/10/28 08:44:56;;;;;;;4.97;2.30;;;18.30;86.60;;;;;;4929914;29;20038;-77
2022/10/28 08:47:33;;;;;;;4.03;2.13;;;18.30;86.50;;;;;;4853880;29;20032;-78
2022/10/28 08:50:04;;;;;;;6.47;2.20;;;18.30;86.40;;;;;;4840328;29;20030;-77
2022/10/28 08:52:42;;;;;;;3.88;1.85;;;18.30;86.40;;;;;;4897280;29;20023;-77
2022/10/28 08:55:15;;;;;;;4.07;2.10;;;18.30;86.30;;;;;;4931500;29;20035;-77
2022/10/28 08:58:07;;;;;;;4.78;2.28;;;18.40;86.30;;;;;;4931096;29;20028;-77
2022/10/28 09:00:35;;;;;;;4.53;2.20;;;18.30;86.20;;;;;;4929883;29;20040;-77
2022/10/28 09:03:21;;;;;;;4.32;2.22;;;18.40;86.10;;;;;;4930812;29;20035;-77
2022/10/28 09:05:52;;;;;;;5.07;2.10;;;18.40;85.90;;;;;;4930967;29;20405;-77
2022/10/28 09:08:24;;;;;;;4.82;2.28;;;18.50;85.90;;;;;;4931408;29;20031;-77
2022/10/28 09:11:18;;;;;;;4.32;1.80;;;18.50;85.70;;;;;;4929489;29;20036;-77
2022/10/28 09:14:17;;;;;;;4.47;2.10;;;18.50;85.60;;;;;;4913836;29;20083;-77
2022/10/28 09:17:00;;;;;;;5.40;2.38;;;18.50;85.60;;;;;;4930570;29;20031;-77
2022/10/28 09:19:47;;;;;;;4.50;2.05;;;18.50;85.60;;;;;;4930796;29;20387;-76
2022/10/28 09:22:24;;;;;;;5.07;2.05;;;18.50;85.70;;;;;;4930342;29;20114;-77
2022/10/28 09:25:12;;;;;;;5.03;2.25;;;18.60;85.80;;;;;;4913588;29;20034;-77
2022/10/28 09:28:08;;;;;;;4.65;2.28;;;18.60;85.80;;;;;;4913570;29;20116;-76
2022/10/28 09:30:47;;;;;;;4.82;2.03;;;18.50;85.70;;;;;;4930244;29;20111;-78
2022/10/28 09:33:16;;;;;;;5.03;2.17;;;18.60;85.90;;;;;;4930380;29;20389;-76
2022/10/28 09:35:44;;;;;;;5.30;2.13;;;18.50;85.90;;;;;;4913625;29;20032;-77
2022/10/28 09:38:34;;;;;;;4.35;2.08;;;18.50;86.00;;;;;;4929307;29;20036;-78
2022/10/28 09:41:15;;;;;;;6.33;2.10;;;18.50;86.10;;;;;;4922511;29;20063;-77
2022/10/28 09:43:55;;;;;;;4.55;2.42;;;18.50;86.20;;;;;;4913144;29;20391;-77
2022/10/28 09:46:24;;;;;;;5.38;2.40;;;18.50;86.20;;;;;;4928868;29;20036;-77
2022/10/28 09:48:54;;;;;;;6.07;2.13;;;18.50;86.30;;;;;;4930252;29;20023;-77
2022/10/28 09:51:58;;;;;;;4.43;1.95;;;18.50;86.30;;;;;;4928688;29;20032;-77
2022/10/28 09:54:51;;;;;;;3.42;1.92;;;18.40;86.30;;;;;;4870928;29;20306;-76
2022/10/28 09:57:17;;;;;;;4.75;2.25;;;18.50;86.40;;;;;;4925033;29;20042;-77
2022/10/28 09:59:43;;;;;;;4.38;2.20;;;18.50;86.30;;;;;;4928309;29;20676;-76
2022/10/28 10:02:29;;;;;;;4.63;2.20;;;18.50;86.10;;;;;;4930022;29;20027;-77
2022/10/28 10:04:56;;;;;;;5.63;2.00;;;18.60;86.00;;;;;;4929567;29;20801;-76
2022/10/28 10:07:38;;;;;;;4.57;2.15;;;18.60;85.80;;;;;;4930611;29;20023;-76
2022/10/28 10:10:13;;;;;;;4.25;2.10;;;18.60;85.70;;;;;;4928501;29;20031;-77
2022/10/28 10:12:38;;;;;;;5.13;2.10;;;18.70;86.20;;;;;;4929970;29;20031;-77
2022/10/28 10:15:06;;;;;;;4.60;2.03;;;18.70;85.60;;;;;;4928189;29;20035;-77
2022/10/28 10:17:45;;;;;;;4.50;2.00;;;18.60;85.60;;;;;;4928430;29;20580;-77
2022/10/28 10:20:19;;;;;;;4.70;2.30;;;18.60;85.60;;;;;;4929051;29;20106;-77
2022/10/28 10:22:47;;;;;;;5.43;2.05;;;18.70;85.70;;;;;;4928346;29;20031;-78
2022/10/28 10:25:18;;;;;;;4.15;2.25;;;18.60;85.70;;;;;;4928792;29;20288;-77
2022/10/28 10:27:50;;;;;;;5.63;2.20;;;18.70;85.80;;;;;;4912922;29;20119;-77
2022/10/28 10:30:30;;;;;;;4.43;2.08;;;18.70;85.70;;;;;;4912304;29;20034;-77
2022/10/28 10:32:56;;;;;;;5.65;2.25;;;18.60;85.70;;;;;;4929741;29;20106;-77
2022/10/28 10:35:26;;;;;;;3.65;1.90;;;18.70;85.70;;;;;;4929104;29;20092;-77
2022/10/28 10:37:54;;;;;;;4.78;2.05;;;18.70;85.70;;;;;;4929313;29;20039;-76
2022/10/28 10:40:32;;;;;;;4.75;2.10;;;18.70;85.80;;;;;;4927757;29;20130;-77
2022/10/28 10:43:16;;;;;;;4.57;2.17;;;18.70;85.80;;;;;;4929279;29;20422;-77
2022/10/28 10:45:57;;;;;;;3.78;1.88;;;18.60;85.80;;;;;;4929080;29;20398;-77
2022/10/28 10:48:23;;;;;;;4.63;1.90;;;18.60;85.80;;;;;;4929193;29;20382;-76
2022/10/28 10:50:49;;;;;;;5.70;2.25;;;18.60;86.00;;;;;;4927296;29;20035;-76
2022/10/28 10:53:22;;;;;;;5.15;2.50;;;18.60;86.20;;;;;;4911946;29;20799;-76
2022/10/28 10:55:53;;;;;;;4.47;2.40;;;18.60;86.30;;;;;;4928870;29;20031;-76
2022/10/28 10:58:22;;;;;;;4.63;2.28;;;18.60;86.30;;;;;;4926955;29;20032;-77
2022/10/28 11:00:51;;;;;;;4.13;1.75;;;18.60;86.20;;;;;;4926845;29;20095;-76
2022/10/28 11:03:24;;;;;;;3.75;1.80;;;18.60;86.20;;;;;;4927351;29;20028;-77
2022/10/28 11:05:58;;;;;;;4.03;1.85;;;18.60;86.20;;;;;;4928651;29;20036;-76
2022/10/28 11:08:35;;;;;;;5.15;2.20;;;18.60;86.20;;;;;;4927459;29;20528;-77
2022/10/28 11:11:19;;;;;;;4.28;1.80;;;18.60;86.30;;;;;;4926791;29;20227;-76
2022/10/28 11:13:47;;;;;;;5.50;2.28;;;18.60;86.40;;;;;;4928605;29;20513;-76
2022/10/28 11:16:23;;;;;;;6.35;2.10;;;18.60;86.50;;;;;;4928542;29;20034;-77
2022/10/28 11:18:51;;;;;;;3.97;2.10;;;18.50;86.60;;;;;;4927439;29;20565;-77
2022/10/28 11:21:32;;;;;;;4.85;2.30;;;18.50;86.80;;;;;;4928322;29;20043;-78
2022/10/28 11:24:22;;;;;;;4.57;1.88;;;18.50;86.90;;;;;;4927202;29;20437;-78
2022/10/28 11:27:17;;;;;;;4.95;2.33;;;18.40;87.00;;;;;;4911356;29;20446;-77
2022/10/28 11:29:44;;;;;;;5.72;2.10;;;18.40;87.00;;;;;;4928006;29;20094;-77
2022/10/28 11:32:17;;;;;;;4.55;1.77;;;18.40;87.00;;;;;;4927332;29;20028;-77
2022/10/28 11:35:21;;;;;;;4.80;2.20;;;18.40;87.10;;;;;;4928442;29;20541;-78
2022/10/28 11:38:01;;;;;;;4.10;1.90;;;18.40;87.10;;;;;;4910801;29;20051;-77
2022/10/28 11:40:46;;;;;;;5.35;2.00;;;18.40;87.20;;;;;;4926584;29;20070;-77
2022/10/28 11:43:23;;;;;;;5.05;2.10;;;18.40;87.10;;;;;;4928086;29;20556;-77
2022/10/28 11:46:04;;;;;;;4.13;2.03;;;18.40;87.10;;;;;;4928214;29;20166;-77
2022/10/28 11:48:57;;;;;;;4.03;2.20;;;18.40;87.10;;;;;;4928354;29;20023;-76
2022/10/28 11:51:33;;;;;;;3.83;2.00;;;18.40;87.10;;;;;;4927758;29;20042;-76
2022/10/28 11:54:19;;;;;;;4.85;2.00;;;18.50;87.10;;;;;;4928179;29;20032;-76
2022/10/28 11:57:09;;;;;;;5.25;2.30;;;18.50;87.10;;;;;;4911152;29;20028;-76
2022/10/28 11:59:50;;;;;;;4.63;2.10;;;18.50;87.00;;;;;;4927868;29;20520;-76
2022/10/28 12:02:53;;;;;;;4.72;2.10;;;18.50;87.10;;;;;;4928130;29;20035;-77
2022/10/28 12:05:44;;;;;;;5.03;2.20;;;18.50;86.70;;;;;;4927946;29;20059;-77
2022/10/28 12:08:41;;;;;;;4.60;2.05;;;18.60;86.70;;;;;;4928182;29;20090;-76
2022/10/28 12:11:31;;;;;;;5.03;2.30;;;18.50;86.60;;;;;;4914510;29;20031;-77
2022/10/28 12:14:08;;;;;;;4.55;1.98;;;18.50;86.70;;;;;;4932023;29;20320;-77
2022/10/28 12:16:39;;;;;;;5.18;2.08;;;18.50;86.90;;;;;;4930594;29;20079;-76
2022/10/28 12:19:11;;;;;;;;;;;18.40;87.10;;;;;;4932425;29;20032;-77
2022/10/28 12:21:41;;;;;;;6.03;2.40;;;18.40;87.20;;;;;;4930111;29;19922;-77
2022/10/28 12:24:15;;;;;;;4.03;2.15;;;18.40;87.50;;;;;;4931961;29;20024;-77
2022/10/28 12:26:45;;;;;;;5.28;2.20;;;18.40;87.50;;;;;;4931454;29;20618;-77
2022/10/28 12:29:32;;;;;;;5.18;2.40;;;18.30;87.60;;;;;;4931770;29;20027;-77
2022/10/28 12:32:05;;;;;;;5.07;2.00;;;18.30;87.70;;;;;;4926474;29;20494;-77
2022/10/28 12:34:35;;;;;;;4.72;2.20;;;18.30;87.90;;;;;;4929415;29;20035;-77
2022/10/28 12:37:22;;;;;;;4.93;1.92;;;18.30;88.00;;;;;;4926860;29;20220;-77
2022/10/28 12:40:00;;;;;;;4.18;2.05;;;18.30;88.10;;;;;;4910060;29;20413;-76
2022/10/28 12:42:36;;;;;;;4.35;1.92;;;18.20;88.20;;;;;;4914184;29;20027;-76
2022/10/28 12:45:06;;;;;;;5.57;1.90;;;18.20;88.30;;;;;;4929478;29;20034;-76
2022/10/28 12:47:53;;;;;;;5.22;2.13;;;18.20;88.40;;;;;;4932321;29;20036;-76
2022/10/28 12:50:35;;;;;;;4.35;2.10;;;18.20;88.40;;;;;;4928574;29;20046;-78
2022/10/28 12:53:00;;;;;;;6.93;2.17;;;18.20;88.30;;;;;;4930384;29;20036;-76
2022/10/28 12:55:52;;;;;;;4.07;1.88;;;18.20;88.20;;;;;;4931355;29;20393;-76
2022/10/28 12:58:30;;;;;;;4.10;2.10;;;18.20;88.20;;;;;;4920504;29;20043;-77
2022/10/28 13:01:00;;;;;;;4.47;2.10;;;18.20;88.10;;;;;;4928929;29;20090;-76
2022/10/28 13:03:26;;;;;;;6.88;2.35;;;18.20;88.10;;;;;;4930255;29;20110;-77
2022/10/28 13:05:51;;;;;;;3.85;2.10;;;18.30;88.10;;;;;;4912446;29;20522;-76
2022/10/28 13:08:48;;;;;;;3.72;1.90;;;18.30;88.10;;;;;;4928122;29;20044;-76
2022/10/28 13:11:52;;;;;;;4.43;2.05;;;18.20;88.10;;;;;;4927862;29;20040;-76
2022/10/28 13:14:38;;;;;;;5.63;2.33;;;18.20;88.10;;;;;;4925968;29;20042;-76